Griffing Park, Texas
Current Conditions -  °F | °C
As of 6:53 PM on Tuesday 21 Oct 2014 (Local Time) from KBPT Reporting Station
Clear Clear  
Wind Chill: 75°   Ceiling: Unl
Heat Index: 75°   Visibility: 9mi
Dew Point: 60°   Wind: 7mph
Humidity: 60%   Direction: 40°NE
Pressure: 29.98"   Gusts: NA
Location:  29.7569°N, 94.1898°W
Report Text: KBPT 212353Z 04006KT 9SM CLR 24/16 A2998 RMK AO2 SLP152 T02390156 10283 20239 55002
Loading
Personal Weather Stations






























Interactive Weather Map
Tropical Storm Tracking
New forecast layout! Learn more

10-Day Weather Forecast

Advertisements
Track Severe Weather on mobile